Stena Conquest — IBGM — position and weather

sailwx.info

Track history (hours):
 
Tides and Currents Weather Stations Pressure Air Temp Water Temp Dewpoint Dewpoint Depression Visibility Wind Speed Wind Dir Waves Ship Positions

Stena Conquest

Last reported at 2017-Sep-21 03:53 UTC. Time now 2017-Sep-21 10:41 UTC.
Position N 36°08' W 005°24'.

Length 182 m; draft 0.85 m.

Type: Ship (hazmat cat A). MMSI: 247091300.

Date/timePositionNaut miles runAvg speedWind from/ knotsBaromVisibWave heightAir tempDewpointWater temp
2017-Sep-21 03:53N 36°08' W 005°24'0 0.0
2017-Sep-21 03:02N 36°08' W 005°24'0 0.1
2017-Sep-21 02:53N 36°08' W 005°24'0 0.0
2017-Sep-21 00:41N 36°08' W 005°24'0 0.0
2017-Sep-20 22:20N 36°08' W 005°25'0 0.3
2017-Sep-20 21:56N 36°08' W 005°25'2 0.2
2017-Sep-20 11:09N 36°06' W 005°24'1 5.6
2017-Sep-20 10:56N 36°05' W 005°23'0 1.0
2017-Sep-20 10:30N 36°04' W 005°24'2 2.6
2017-Sep-20 09:55N 36°03' W 005°22'2 4.7
2017-Sep-20 09:30N 36°01' W 005°22'611.9
2017-Sep-20 09:00N 35°58' W 005°28'6013.3
2017-Sep-20 04:30N 35°58' W 006°42'3312.8
2017-Sep-20 01:58N 36°06' W 007°21'612.6
2017-Sep-20 01:30N 36°07' W 007°27'1212.8
2017-Sep-20 00:33N 36°11' W 007°42'213.0
2017-Sep-20 00:21N 36°11' W 007°45'513.1
2017-Sep-19 23:57N 36°12' W 007°52'1013.1
2017-Sep-19 23:10N 36°15' W 008°04'313.3
2017-Sep-19 22:55N 36°15' W 008°08'513.3
2017-Sep-19 22:30N 36°17' W 008°15'713.2
2017-Sep-19 22:00N 36°18' W 008°22'813.3
2017-Sep-19 21:26N 36°20' W 008°32'2313.3
2017-Sep-19 19:40N 36°26' W 008°60'213.4
2017-Sep-19 19:30N 36°27' W 009°02'713.7
2017-Sep-19 19:00N 36°28' W 009°11'1613.5
2017-Sep-19 17:47N 36°36' W 009°28'3113.0
2017-Sep-19 15:24N 37°05' W 009°43'2413.3
2017-Sep-19 13:34N 37°29' W 009°50'113.6
2017-Sep-19 13:28N 37°30' W 009°51'2313.3
2017-Sep-19 11:46N 37°52' W 009°57'1513.2
2017-Sep-19 10:37N 38°07' W 010°02'513.2
2017-Sep-19 10:16N 38°11' W 010°03'1013.4
2017-Sep-19 09:30N 38°21' W 010°07'714.1
2017-Sep-19 09:00N 38°28' W 010°08'914.2
2017-Sep-19 08:22N 38°37' W 010°11'514.5
2017-Sep-19 08:00N 38°42' W 010°12'714.4
2017-Sep-19 07:30N 38°49' W 010°12'814.7
2017-Sep-19 06:56N 38°58' W 010°12'614.1
2017-Sep-19 06:30N 39°04' W 010°10'713.8
2017-Sep-19 06:00N 39°10' W 010°07'813.7
2017-Sep-19 05:23N 39°18' W 010°04'913.5
2017-Sep-19 04:44N 39°26' W 010°00'1513.5
2017-Sep-19 03:36N 39°40' W 009°52'213.5
2017-Sep-19 03:29N 39°42' W 009°51'  
2017-Sep-16 21:00N 39°35' W 009°45'911.5
2017-Sep-16 20:14N 39°26' W 009°45'210.2
2017-Sep-16 20:00N 39°24' W 009°45'0 0.9
2017-Sep-16 19:30N 39°24' W 009°46'1 2.0
2017-Sep-16 18:50N 39°25' W 009°46'1 2.1
2017-Sep-16 18:30N 39°26' W 009°46'1 2.1
2017-Sep-16 18:00N 39°27' W 009°47'1 2.0
2017-Sep-16 17:30N 39°28' W 009°47'1 2.0
2017-Sep-16 17:00N 39°28' W 009°48'1 1.9
2017-Sep-16 16:30N 39°29' W 009°48'1 1.9
2017-Sep-16 16:01N 39°30' W 009°49'1 2.0
2017-Sep-16 15:25N 39°31' W 009°49'1 1.1
2017-Sep-16 14:52N 39°32' W 009°49'3 8.5
2017-Sep-16 14:30N 39°29' W 009°49'510.3
2017-Sep-16 14:00N 39°24' W 009°50'510.3
2017-Sep-16 13:30N 39°19' W 009°52'510.1
2017-Sep-16 13:01N 39°14' W 009°53'510.3
2017-Sep-16 12:30N 39°09' W 009°54'5 9.9
2017-Sep-16 12:00N 39°04' W 009°55'510.5
2017-Sep-16 11:30N 38°59' W 009°56'510.5
2017-Sep-16 11:01N 38°53' W 009°56'510.0
2017-Sep-16 10:30N 38°48' W 009°56'510.3
2017-Sep-16 10:00N 38°43' W 009°56'510.3
2017-Sep-16 09:30N 38°38' W 009°55'5 9.2
2017-Sep-16 09:00N 38°34' W 009°54'4 8.8
2017-Sep-16 08:31N 38°29' W 009°53'4 8.9
2017-Sep-16 08:00N 38°25' W 009°51'6 9.5
2017-Sep-16 07:23N 38°19' W 009°49'510.5
2017-Sep-16 06:55N 38°14' W 009°48'410.9
2017-Sep-16 06:30N 38°10' W 009°47'510.6
2017-Sep-16 06:00N 38°05' W 009°45'610.8
2017-Sep-16 05:29N 37°59' W 009°43'810.6
2017-Sep-16 04:46N 37°52' W 009°41'310.2
2017-Sep-16 04:31N 37°49' W 009°41'510.1
2017-Sep-16 04:00N 37°44' W 009°40'510.0
2017-Sep-16 03:29N 37°39' W 009°38'71 8.9
2017-Sep-15 19:29N 36°36' W 008°58'4 8.0
2017-Sep-15 19:00N 36°35' W 008°53'17 8.5
2017-Sep-15 17:00N 36°30' W 008°33'22 8.0
2017-Sep-15 14:16N 36°23' W 008°07'2 8.4
2017-Sep-15 14:00N 36°23' W 008°04'12611.7
2017-Sep-15 03:18N 35°59' W 005°32'3 9.8
2017-Sep-15 03:00N 36°00' W 005°28'5 9.3
2017-Sep-15 02:30N 36°04' W 005°24'5 1.1
2017-Sep-14 21:45N 36°09' W 005°23'0 0.1
2017-Sep-14 19:59N 36°09' W 005°23'0 0.1
2017-Sep-14 17:23N 36°09' W 005°23'0 0.1
2017-Sep-14 16:57N 36°09' W 005°23'0 0.3
2017-Sep-14 15:53N 36°09' W 005°23'0 0.1
2017-Sep-14 15:15N 36°09' W 005°23'2 0.2
2017-Sep-14 06:44N 36°07' W 005°23'1 5.0
2017-Sep-14 06:26N 36°05' W 005°22'1 1.3
2017-Sep-14 06:00N 36°05' W 005°22'1 2.7
2017-Sep-14 05:30N 36°06' W 005°22'2 5.0
2017-Sep-14 05:00N 36°04' W 005°20'3 6.0
2017-Sep-14 04:31N 36°05' W 005°17'5 9.0
2017-Sep-14 03:59N 36°07' W 005°12'2 0.6
2017-Sep-14 00:16N 36°09' W 005°10'3 6.9
2017-Sep-13 23:54N 36°07' W 005°12'2 4.6
2017-Sep-13 23:30N 36°06' W 005°14'20611.9
2017-Sep-13 06:07N 37°10' W 001°09'913.3
2017-Sep-13 05:26N 37°16' W 001°00'613.3
2017-Sep-13 05:00N 37°19' W 000°55'713.3
2017-Sep-13 04:30N 37°24' W 000°49'713.5
2017-Sep-13 04:00N 37°28' W 000°43'713.7
2017-Sep-13 03:30N 37°33' W 000°36'713.6
2017-Sep-13 03:00N 37°38' W 000°31'713.4
2017-Sep-13 02:30N 37°44' W 000°26'813.4
2017-Sep-13 01:55N 37°50' W 000°20'913.6
2017-Sep-13 01:13N 37°58' W 000°13'313.5
2017-Sep-13 01:00N 38°00' W 000°12'913.4
2017-Sep-13 00:20N 38°08' W 000°06'3413.5
2017-Sep-12 21:49N 38°37' E 000°18'613.1
2017-Sep-12 21:23N 38°41' E 000°22'8113.1
2017-Sep-12 15:09N 39°53' E 001°12'213.7
2017-Sep-12 15:00N 39°55' E 001°13'713.7
2017-Sep-12 14:28N 40°01' E 001°18'614.0
2017-Sep-12 14:00N 40°07' E 001°22'913.9
2017-Sep-12 13:19N 40°15' E 001°27'413.8
2017-Sep-12 13:00N 40°19' E 001°30'813.7
2017-Sep-12 12:23N 40°27' E 001°36'513.5
2017-Sep-12 12:00N 40°31' E 001°39'713.5
2017-Sep-12 11:30N 40°37' E 001°43'713.5
2017-Sep-12 11:00N 40°43' E 001°47'713.2
2017-Sep-12 10:28N 40°49' E 001°52'612.8
2017-Sep-12 10:00N 40°55' E 001°56'612.4
2017-Sep-12 09:30N 41°00' E 001°59'612.5
2017-Sep-12 09:00N 41°06' E 002°03'  
Track history (hours):
 
Tides and Currents Weather Stations Pressure Air Temp Water Temp Dewpoint Dewpoint Depression Visibility Wind Speed Wind Dir Waves Ship Positions

Stena Conquest

Last reported at 2017-Sep-21 03:53 UTC. Time now 2017-Sep-21 10:41 UTC.
Position N 36°08' W 005°24'.

Length 182 m; draft 0.85 m.

Type: Ship (hazmat cat A). MMSI: 247091300.

Date/timePositionNaut miles runAvg speedWind from/ knotsBaromVisibWave heightAir tempDewpointWater temp
2017-Sep-21 03:53N 36°08' W 005°24'0 0.0
2017-Sep-21 03:02N 36°08' W 005°24'0 0.1
2017-Sep-21 02:53N 36°08' W 005°24'0 0.0
2017-Sep-21 00:41N 36°08' W 005°24'0 0.0
2017-Sep-20 22:20N 36°08' W 005°25'0 0.3
2017-Sep-20 21:56N 36°08' W 005°25'2 0.2
2017-Sep-20 11:09N 36°06' W 005°24'1 5.6
2017-Sep-20 10:56N 36°05' W 005°23'0 1.0
2017-Sep-20 10:30N 36°04' W 005°24'2 2.6
2017-Sep-20 09:55N 36°03' W 005°22'2 4.7
2017-Sep-20 09:30N 36°01' W 005°22'611.9
2017-Sep-20 09:00N 35°58' W 005°28'6013.3
2017-Sep-20 04:30N 35°58' W 006°42'3312.8
2017-Sep-20 01:58N 36°06' W 007°21'612.6
2017-Sep-20 01:30N 36°07' W 007°27'1212.8
2017-Sep-20 00:33N 36°11' W 007°42'213.0
2017-Sep-20 00:21N 36°11' W 007°45'513.1
2017-Sep-19 23:57N 36°12' W 007°52'1013.1
2017-Sep-19 23:10N 36°15' W 008°04'313.3
2017-Sep-19 22:55N 36°15' W 008°08'513.3
2017-Sep-19 22:30N 36°17' W 008°15'713.2
2017-Sep-19 22:00N 36°18' W 008°22'813.3
2017-Sep-19 21:26N 36°20' W 008°32'2313.3
2017-Sep-19 19:40N 36°26' W 008°60'213.4
2017-Sep-19 19:30N 36°27' W 009°02'713.7
2017-Sep-19 19:00N 36°28' W 009°11'1613.5
2017-Sep-19 17:47N 36°36' W 009°28'3113.0
2017-Sep-19 15:24N 37°05' W 009°43'2413.3
2017-Sep-19 13:34N 37°29' W 009°50'113.6
2017-Sep-19 13:28N 37°30' W 009°51'2313.3
2017-Sep-19 11:46N 37°52' W 009°57'1513.2
2017-Sep-19 10:37N 38°07' W 010°02'513.2
2017-Sep-19 10:16N 38°11' W 010°03'1013.4
2017-Sep-19 09:30N 38°21' W 010°07'714.1
2017-Sep-19 09:00N 38°28' W 010°08'914.2
2017-Sep-19 08:22N 38°37' W 010°11'514.5
2017-Sep-19 08:00N 38°42' W 010°12'714.4
2017-Sep-19 07:30N 38°49' W 010°12'814.7
2017-Sep-19 06:56N 38°58' W 010°12'614.1
2017-Sep-19 06:30N 39°04' W 010°10'713.8
2017-Sep-19 06:00N 39°10' W 010°07'813.7
2017-Sep-19 05:23N 39°18' W 010°04'913.5
2017-Sep-19 04:44N 39°26' W 010°00'1513.5
2017-Sep-19 03:36N 39°40' W 009°52'213.5
2017-Sep-19 03:29N 39°42' W 009°51'  
2017-Sep-16 21:00N 39°35' W 009°45'911.5
2017-Sep-16 20:14N 39°26' W 009°45'210.2
2017-Sep-16 20:00N 39°24' W 009°45'0 0.9
2017-Sep-16 19:30N 39°24' W 009°46'1 2.0
2017-Sep-16 18:50N 39°25' W 009°46'1 2.1
2017-Sep-16 18:30N 39°26' W 009°46'1 2.1
2017-Sep-16 18:00N 39°27' W 009°47'1 2.0
2017-Sep-16 17:30N 39°28' W 009°47'1 2.0
2017-Sep-16 17:00N 39°28' W 009°48'1 1.9
2017-Sep-16 16:30N 39°29' W 009°48'1 1.9
2017-Sep-16 16:01N 39°30' W 009°49'1 2.0
2017-Sep-16 15:25N 39°31' W 009°49'1 1.1
2017-Sep-16 14:52N 39°32' W 009°49'3 8.5
2017-Sep-16 14:30N 39°29' W 009°49'510.3
2017-Sep-16 14:00N 39°24' W 009°50'510.3
2017-Sep-16 13:30N 39°19' W 009°52'510.1
2017-Sep-16 13:01N 39°14' W 009°53'510.3
2017-Sep-16 12:30N 39°09' W 009°54'5 9.9
2017-Sep-16 12:00N 39°04' W 009°55'510.5
2017-Sep-16 11:30N 38°59' W 009°56'510.5
2017-Sep-16 11:01N 38°53' W 009°56'510.0
2017-Sep-16 10:30N 38°48' W 009°56'510.3
2017-Sep-16 10:00N 38°43' W 009°56'510.3
2017-Sep-16 09:30N 38°38' W 009°55'5 9.2
2017-Sep-16 09:00N 38°34' W 009°54'4 8.8
2017-Sep-16 08:31N 38°29' W 009°53'4 8.9
2017-Sep-16 08:00N 38°25' W 009°51'6 9.5
2017-Sep-16 07:23N 38°19' W 009°49'510.5
2017-Sep-16 06:55N 38°14' W 009°48'410.9
2017-Sep-16 06:30N 38°10' W 009°47'510.6
2017-Sep-16 06:00N 38°05' W 009°45'610.8
2017-Sep-16 05:29N 37°59' W 009°43'810.6
2017-Sep-16 04:46N 37°52' W 009°41'310.2
2017-Sep-16 04:31N 37°49' W 009°41'510.1
2017-Sep-16 04:00N 37°44' W 009°40'510.0
2017-Sep-16 03:29N 37°39' W 009°38'71 8.9
2017-Sep-15 19:29N 36°36' W 008°58'4 8.0
2017-Sep-15 19:00N 36°35' W 008°53'17 8.5
2017-Sep-15 17:00N 36°30' W 008°33'22 8.0
2017-Sep-15 14:16N 36°23' W 008°07'2 8.4
2017-Sep-15 14:00N 36°23' W 008°04'12611.7
2017-Sep-15 03:18N 35°59' W 005°32'3 9.8
2017-Sep-15 03:00N 36°00' W 005°28'5 9.3
2017-Sep-15 02:30N 36°04' W 005°24'5 1.1
2017-Sep-14 21:45N 36°09' W 005°23'0 0.1
2017-Sep-14 19:59N 36°09' W 005°23'0 0.1
2017-Sep-14 17:23N 36°09' W 005°23'0 0.1
2017-Sep-14 16:57N 36°09' W 005°23'0 0.3
2017-Sep-14 15:53N 36°09' W 005°23'0 0.1
2017-Sep-14 15:15N 36°09' W 005°23'2 0.2
2017-Sep-14 06:44N 36°07' W 005°23'1 5.0
2017-Sep-14 06:26N 36°05' W 005°22'1 1.3
2017-Sep-14 06:00N 36°05' W 005°22'1 2.7
2017-Sep-14 05:30N 36°06' W 005°22'2 5.0
2017-Sep-14 05:00N 36°04' W 005°20'3 6.0
2017-Sep-14 04:31N 36°05' W 005°17'5 9.0
2017-Sep-14 03:59N 36°07' W 005°12'2 0.6
2017-Sep-14 00:16N 36°09' W 005°10'3 6.9
2017-Sep-13 23:54N 36°07' W 005°12'2 4.6
2017-Sep-13 23:30N 36°06' W 005°14'20611.9
2017-Sep-13 06:07N 37°10' W 001°09'913.3
2017-Sep-13 05:26N 37°16' W 001°00'613.3
2017-Sep-13 05:00N 37°19' W 000°55'713.3
2017-Sep-13 04:30N 37°24' W 000°49'713.5
2017-Sep-13 04:00N 37°28' W 000°43'713.7
2017-Sep-13 03:30N 37°33' W 000°36'713.6
2017-Sep-13 03:00N 37°38' W 000°31'713.4
2017-Sep-13 02:30N 37°44' W 000°26'813.4
2017-Sep-13 01:55N 37°50' W 000°20'913.6
2017-Sep-13 01:13N 37°58' W 000°13'313.5
2017-Sep-13 01:00N 38°00' W 000°12'913.4
2017-Sep-13 00:20N 38°08' W 000°06'3413.5
2017-Sep-12 21:49N 38°37' E 000°18'613.1
2017-Sep-12 21:23N 38°41' E 000°22'8113.1
2017-Sep-12 15:09N 39°53' E 001°12'213.7
2017-Sep-12 15:00N 39°55' E 001°13'713.7
2017-Sep-12 14:28N 40°01' E 001°18'614.0
2017-Sep-12 14:00N 40°07' E 001°22'913.9
2017-Sep-12 13:19N 40°15' E 001°27'413.8
2017-Sep-12 13:00N 40°19' E 001°30'813.7
2017-Sep-12 12:23N 40°27' E 001°36'513.5
2017-Sep-12 12:00N 40°31' E 001°39'713.5
2017-Sep-12 11:30N 40°37' E 001°43'713.5
2017-Sep-12 11:00N 40°43' E 001°47'713.2
2017-Sep-12 10:28N 40°49' E 001°52'612.8
2017-Sep-12 10:00N 40°55' E 001°56'612.4
2017-Sep-12 09:30N 41°00' E 001°59'612.5
2017-Sep-12 09:00N 41°06' E 002°03'  

Dump ship's entire track history